Terminal Aerodrome Forecast
Issued by NWS

Home | Current Version | Previous Version | Text Only | Print | Product List | Glossary On
Versions: 1 2 3 4 5 6 7 8 9 10 11 12 13 14 15 16 17
000
FTUS45 KABQ 032200 AAB
TAFLVS
TAF AMD
KLVS 032229Z 0322/0418 34015KT P6SM VCTS BKN090CB OVC120
      TEMPO 0322/0324 VRB15G25KT -TSRA BKN060CB
     FM040000 29008KT P6SM BKN090
     FM040600 24007KT P6SM SCT150
     FM041600 18015G25KT P6SM SCT100=

USA.gov is the U.S. government's official web portal to all federal, state and local government web resources and services.